Time;durP1;ratioP1;P1;durP2;ratioP2;P2;SDS_P1;SDS_P2;PMS_P1;PMS_P2;Temp;Humidity;BMP_temperature;BMP_pressure;BME280_temperature;BME280_humidity;BME280_pressure;Samples;Min_cycle;Max_cycle;Signal;HPM_P1;HPM_P2
2021/09/19 00:02:25;;;;;;;3.00;1.10;;;16.90;74.10;;;;;;4955568;29;20058;-83
2021/09/19 00:04:50;;;;;;;3.72;1.00;;;16.80;74.80;;;;;;4955350;29;20063;-83
2021/09/19 00:07:16;;;;;;;3.42;0.98;;;16.80;74.60;;;;;;4954899;29;20447;-84
2021/09/19 00:09:42;;;;;;;3.67;0.88;;;16.80;74.20;;;;;;4954766;29;20038;-83
2021/09/19 00:12:08;;;;;;;3.30;1.05;;;16.80;74.40;;;;;;4955128;29;20027;-85
2021/09/19 00:14:34;;;;;;;4.07;0.93;;;16.80;74.60;;;;;;4953934;28;20070;-83
2021/09/19 00:17:01;;;;;;;4.45;0.90;;;16.90;74.70;;;;;;4955167;29;20110;-83
2021/09/19 00:19:27;;;;;;;5.22;1.40;;;16.90;74.40;;;;;;4954648;29;20046;-85
2021/09/19 00:21:52;;;;;;;3.70;1.17;;;16.90;74.50;;;;;;4954336;29;20027;-85
2021/09/19 00:24:18;;;;;;;3.53;0.95;;;16.80;74.50;;;;;;4936965;29;20035;-85
2021/09/19 00:26:44;;;;;;;3.38;1.00;;;16.90;74.90;;;;;;4954974;29;20054;-83
2021/09/19 00:29:10;;;;;;;2.22;0.90;;;16.90;74.60;;;;;;4938255;29;20032;-84
2021/09/19 00:31:36;;;;;;;4.57;0.95;;;16.90;74.40;;;;;;4938400;29;20522;-85
2021/09/19 00:34:01;;;;;;;5.28;0.95;;;16.90;74.90;;;;;;4955340;29;20563;-85
2021/09/19 00:36:27;;;;;;;3.85;0.90;;;16.90;74.90;;;;;;4949411;29;20011;-86
2021/09/19 00:38:53;;;;;;;5.45;1.20;;;17.00;74.70;;;;;;4978796;29;20016;-85
2021/09/19 00:41:18;;;;;;;2.90;0.70;;;17.00;74.70;;;;;;4962241;29;20019;-84
2021/09/19 00:43:44;;;;;;;4.28;1.02;;;16.90;74.60;;;;;;4977059;29;20050;-86
2021/09/19 00:46:10;;;;;;;3.53;1.00;;;16.90;74.90;;;;;;4965752;29;20459;-85
2021/09/19 00:48:36;;;;;;;5.28;1.25;;;16.80;74.80;;;;;;4955966;29;20031;-86
2021/09/19 00:51:03;;;;;;;3.97;1.20;;;16.90;75.70;;;;;;4938650;29;20243;-85
2021/09/19 00:53:31;;;;;;;5.55;0.90;;;17.10;75.50;;;;;;4955338;29;20038;-85
2021/09/19 00:55:58;;;;;;;5.53;1.20;;;17.10;75.40;;;;;;4954929;29;20539;-85
2021/09/19 00:58:24;;;;;;;3.08;0.80;;;17.10;75.10;;;;;;4953756;29;20039;-85
2021/09/19 01:00:50;;;;;;;3.63;0.90;;;17.20;75.10;;;;;;4953808;29;20074;-86
2021/09/19 01:03:18;;;;;;;3.85;1.00;;;17.30;75.30;;;;;;4953785;29;20027;-86
2021/09/19 01:05:45;;;;;;;4.32;1.08;;;17.30;74.80;;;;;;4953692;29;20404;-86
2021/09/19 01:08:15;;;;;;;3.83;1.00;;;17.40;74.90;;;;;;4953907;29;20488;-87
2021/09/19 01:10:41;;;;;;;3.80;1.10;;;17.40;74.60;;;;;;4953540;29;20035;-86
2021/09/19 01:13:07;;;;;;;4.03;1.20;;;17.40;75.20;;;;;;4953593;29;20023;-87
2021/09/19 01:15:34;;;;;;;2.95;0.82;;;17.30;74.80;;;;;;4953814;29;20078;-84
2021/09/19 01:17:59;;;;;;;6.85;0.98;;;17.30;75.10;;;;;;4936443;29;20045;-85
2021/09/19 01:20:26;;;;;;;3.72;0.95;;;17.30;75.00;;;;;;4953816;29;20477;-84
2021/09/19 01:23:18;;;;;;;4.05;1.00;;;17.40;75.40;;;;;;4953697;29;20579;-84
2021/09/19 01:25:44;;;;;;;3.28;0.70;;;17.50;75.10;;;;;;4951631;28;20071;-84
2021/09/19 01:28:11;;;;;;;5.10;1.00;;;17.50;75.20;;;;;;4957197;29;20046;-85
2021/09/19 01:30:37;;;;;;;2.25;0.70;;;17.60;75.10;;;;;;4957094;29;20508;-84
2021/09/19 01:33:04;;;;;;;4.65;0.90;;;17.60;75.30;;;;;;4957372;29;20067;-86
2021/09/19 01:35:30;;;;;;;3.78;0.88;;;17.70;75.00;;;;;;4956793;29;20512;-85
2021/09/19 01:37:57;;;;;;;3.22;1.15;;;17.70;75.50;;;;;;4957403;29;20102;-85
2021/09/19 01:40:25;;;;;;;4.43;1.40;;;17.70;74.60;;;;;;4957146;29;20500;-85
2021/09/19 01:42:51;;;;;;;5.85;1.23;;;17.70;74.60;;;;;;4956951;29;20066;-84
2021/09/19 01:45:16;;;;;;;2.88;0.85;;;17.60;74.60;;;;;;4957014;29;20035;-85
2021/09/19 01:47:42;;;;;;;2.28;1.10;;;17.60;74.80;;;;;;4957150;29;20019;-85
2021/09/19 01:50:09;;;;;;;6.28;1.30;;;17.60;74.90;;;;;;4957657;29;20055;-85
2021/09/19 01:52:34;;;;;;;4.75;1.48;;;17.60;74.90;;;;;;4956680;29;20086;-85
2021/09/19 01:55:00;;;;;;;5.90;1.50;;;17.60;75.10;;;;;;4956862;29;20488;-84
2021/09/19 01:57:26;;;;;;;6.15;1.73;;;17.60;75.60;;;;;;4956791;29;20089;-85
2021/09/19 01:59:53;;;;;;;4.80;1.50;;;17.60;75.30;;;;;;4956742;29;20069;-85
2021/09/19 02:02:20;;;;;;;3.00;1.27;;;17.60;75.90;;;;;;4957136;29;20511;-85
2021/09/19 02:04:46;;;;;;;3.50;1.30;;;17.60;75.50;;;;;;4939931;29;20031;-85
2021/09/19 02:07:12;;;;;;;7.07;1.58;;;17.60;75.60;;;;;;4956377;29;20399;-85
2021/09/19 02:09:38;;;;;;;3.03;1.30;;;17.50;75.70;;;;;;4956628;29;20033;-85
2021/09/19 02:12:04;;;;;;;4.15;1.20;;;17.50;76.00;;;;;;4956699;29;20039;-85
2021/09/19 02:14:30;;;;;;;6.35;1.55;;;17.50;75.90;;;;;;4939303;29;20039;-85
2021/09/19 02:16:56;;;;;;;6.53;1.65;;;17.40;75.90;;;;;;4956992;29;20086;-86
2021/09/19 02:19:21;;;;;;;3.88;1.30;;;17.40;76.00;;;;;;4939181;29;20567;-87
2021/09/19 02:21:47;;;;;;;2.83;1.38;;;17.40;76.30;;;;;;4956164;29;20381;-86
2021/09/19 02:24:13;;;;;;;2.65;1.00;;;17.40;76.40;;;;;;4956424;29;20404;-86
2021/09/19 02:26:38;;;;;;;4.28;1.30;;;17.50;76.40;;;;;;4939173;29;20121;-87
2021/09/19 02:29:04;;;;;;;3.80;1.40;;;17.50;76.20;;;;;;4956849;29;20440;-86
2021/09/19 02:31:31;;;;;;;3.03;1.30;;;17.50;76.40;;;;;;4956345;29;20035;-85
2021/09/19 02:34:00;;;;;;;4.22;1.08;;;17.50;76.20;;;;;;4938381;29;20142;-85
2021/09/19 02:36:25;;;;;;;5.72;1.80;;;17.50;76.50;;;;;;4955449;28;20510;-85
2021/09/19 02:38:53;;;;;;;6.07;1.67;;;17.60;76.60;;;;;;4955977;29;20126;-86
2021/09/19 02:41:19;;;;;;;4.18;1.65;;;17.60;77.20;;;;;;4956119;29;20031;-86
2021/09/19 02:43:45;;;;;;;5.45;1.33;;;17.60;76.40;;;;;;4956420;29;20050;-86
2021/09/19 02:46:11;;;;;;;2.45;1.30;;;17.60;76.60;;;;;;4955790;29;20031;-86
2021/09/19 02:48:37;;;;;;;4.57;1.58;;;17.60;76.70;;;;;;4955785;29;20093;-85
2021/09/19 02:51:03;;;;;;;5.03;1.40;;;17.70;76.70;;;;;;4955498;29;20404;-86
2021/09/19 02:53:28;;;;;;;3.47;1.60;;;17.60;76.60;;;;;;4955896;29;20443;-87
2021/09/19 02:55:54;;;;;;;1.88;1.15;;;17.70;76.70;;;;;;4938966;29;20035;-87
2021/09/19 02:58:20;;;;;;;4.75;1.70;;;17.70;77.20;;;;;;4955651;29;20147;-87
2021/09/19 03:00:45;;;;;;;4.53;1.58;;;17.70;76.90;;;;;;4955669;29;20029;-84
2021/09/19 03:03:11;;;;;;;7.72;1.60;;;17.70;76.90;;;;;;4955118;29;20078;-87
2021/09/19 03:05:37;;;;;;;5.65;1.60;;;17.70;76.90;;;;;;4955660;29;20027;-86
2021/09/19 03:08:03;;;;;;;3.70;1.77;;;17.70;76.90;;;;;;4956158;29;20082;-87
2021/09/19 03:10:29;;;;;;;4.93;1.63;;;17.70;77.10;;;;;;4955283;29;20027;-86
2021/09/19 03:12:54;;;;;;;5.15;2.00;;;17.70;77.00;;;;;;4938061;29;20024;-84
2021/09/19 03:15:20;;;;;;;3.05;1.77;;;17.70;77.00;;;;;;4955199;29;20516;-86
2021/09/19 03:17:46;;;;;;;3.50;1.90;;;17.70;77.40;;;;;;4955006;29;20046;-85
2021/09/19 03:20:14;;;;;;;4.35;1.70;;;17.70;77.60;;;;;;4955714;29;20211;-86
2021/09/19 03:22:40;;;;;;;4.38;1.85;;;17.70;77.40;;;;;;4953937;29;20032;-87
2021/09/19 03:25:07;;;;;;;4.35;1.80;;;17.70;77.30;;;;;;4955083;29;20413;-86
2021/09/19 03:27:33;;;;;;;5.35;2.00;;;17.70;77.60;;;;;;4955066;29;20511;-86
2021/09/19 03:29:59;;;;;;;4.20;2.05;;;17.80;77.70;;;;;;4952853;29;20020;-86
2021/09/19 03:32:24;;;;;;;5.03;1.80;;;17.80;77.80;;;;;;4952982;29;20554;-87
2021/09/19 03:34:50;;;;;;;5.75;1.63;;;17.80;77.70;;;;;;4955061;29;20055;-86
2021/09/19 03:37:16;;;;;;;3.40;1.80;;;17.90;77.80;;;;;;4937532;29;20031;-84
2021/09/19 03:39:42;;;;;;;3.05;2.00;;;17.90;78.40;;;;;;4954833;29;20028;-85
2021/09/19 03:42:07;;;;;;;3.95;1.65;;;17.80;77.80;;;;;;4937682;29;20031;-85
2021/09/19 03:44:33;;;;;;;4.93;2.15;;;17.90;77.80;;;;;;4954789;29;20488;-85
2021/09/19 03:46:58;;;;;;;4.40;1.88;;;17.90;77.80;;;;;;4954784;29;20031;-85
2021/09/19 03:49:24;;;;;;;2.92;1.80;;;17.90;77.90;;;;;;4954542;28;20110;-86
2021/09/19 03:51:50;;;;;;;2.95;1.75;;;17.90;78.10;;;;;;4954812;29;20078;-85
2021/09/19 03:54:16;;;;;;;4.03;1.85;;;17.90;77.90;;;;;;4954312;29;20173;-86
2021/09/19 03:56:42;;;;;;;4.53;1.73;;;18.00;77.90;;;;;;4954741;29;20109;-86
2021/09/19 03:59:07;;;;;;;3.22;1.42;;;18.00;77.80;;;;;;4938039;29;20031;-86
2021/09/19 04:01:33;;;;;;;1.77;1.15;;;18.00;77.90;;;;;;4954094;29;20031;-86
2021/09/19 04:03:59;;;;;;;2.70;0.80;;;17.90;77.90;;;;;;4953652;29;20028;-86
2021/09/19 04:06:25;;;;;;;2.13;0.98;;;18.00;78.00;;;;;;4953996;29;20031;-86
2021/09/19 04:08:50;;;;;;;2.45;1.00;;;18.00;78.10;;;;;;4953906;29;20511;-86
2021/09/19 04:11:16;;;;;;;1.33;0.73;;;18.10;78.10;;;;;;4954046;29;20481;-86
2021/09/19 04:13:42;;;;;;;1.90;0.68;;;18.00;77.70;;;;;;4954198;29;20031;-86
2021/09/19 04:16:07;;;;;;;1.67;0.93;;;18.00;78.00;;;;;;4953491;29;20385;-86
2021/09/19 04:18:33;;;;;;;2.75;0.70;;;18.10;78.00;;;;;;4953954;29;20498;-86
2021/09/19 04:20:58;;;;;;;1.98;0.52;;;18.10;78.10;;;;;;4953753;29;20058;-85
2021/09/19 04:23:24;;;;;;;1.95;0.70;;;18.10;78.00;;;;;;4953632;29;20034;-85
2021/09/19 04:25:50;;;;;;;2.78;0.50;;;18.10;77.90;;;;;;4954070;29;20412;-83
2021/09/19 04:28:17;;;;;;;2.72;0.57;;;18.10;77.90;;;;;;4936654;29;20027;-86
2021/09/19 04:30:42;;;;;;;2.40;0.70;;;18.10;77.70;;;;;;4953267;29;20042;-88
2021/09/19 04:33:08;;;;;;;2.08;0.55;;;18.10;77.80;;;;;;4953717;29;20055;-87
2021/09/19 04:35:34;;;;;;;0.73;0.30;;;18.10;77.80;;;;;;4953369;29;20054;-88
2021/09/19 04:37:59;;;;;;;1.50;0.50;;;18.10;77.70;;;;;;4936916;29;20024;-88
2021/09/19 04:40:25;;;;;;;0.90;0.47;;;18.10;77.70;;;;;;4953488;29;20066;-87
2021/09/19 04:42:51;;;;;;;1.23;0.40;;;18.10;77.50;;;;;;4936739;29;20050;-87
2021/09/19 04:45:18;;;;;;;1.17;0.45;;;18.10;77.60;;;;;;4953034;29;20055;-88
2021/09/19 04:47:43;;;;;;;1.55;0.45;;;18.00;77.50;;;;;;4936311;29;20082;-88
2021/09/19 04:50:09;;;;;;;2.03;0.47;;;18.00;77.60;;;;;;4937833;29;20031;-87
2021/09/19 04:52:35;;;;;;;2.55;0.55;;;18.10;77.80;;;;;;4953383;29;20027;-88
2021/09/19 04:55:01;;;;;;;2.95;0.55;;;18.10;77.30;;;;;;4953662;29;20172;-87
2021/09/19 04:57:27;;;;;;;4.10;0.68;;;18.10;77.30;;;;;;4953164;29;20041;-87
2021/09/19 04:59:52;;;;;;;2.58;0.75;;;18.00;77.20;;;;;;4936983;29;20039;-87
2021/09/19 05:02:18;;;;;;;4.32;0.73;;;18.00;77.30;;;;;;4959744;28;20023;-87
2021/09/19 05:04:43;;;;;;;2.00;0.68;;;18.00;77.30;;;;;;4958076;29;20085;-87
2021/09/19 05:07:09;;;;;;;3.08;0.50;;;18.00;77.40;;;;;;4959880;28;20027;-86
2021/09/19 05:09:34;;;;;;;2.85;0.85;;;18.00;77.10;;;;;;4959391;29;20125;-87
2021/09/19 05:12:00;;;;;;;3.90;0.70;;;18.00;77.10;;;;;;4959479;28;20086;-87
2021/09/19 05:14:26;;;;;;;1.42;0.60;;;18.00;77.10;;;;;;4959268;29;20452;-87
2021/09/19 05:16:51;;;;;;;2.85;0.77;;;18.00;77.10;;;;;;4957938;29;20105;-88
2021/09/19 05:19:17;;;;;;;3.13;1.02;;;18.00;76.90;;;;;;4960004;29;20031;-88
2021/09/19 05:21:43;;;;;;;4.78;0.70;;;18.00;76.60;;;;;;4959667;28;20027;-87
2021/09/19 05:24:08;;;;;;;3.08;0.70;;;17.90;76.30;;;;;;4959557;28;20114;-86
2021/09/19 05:26:34;;;;;;;4.68;1.05;;;17.90;75.80;;;;;;4959628;28;20031;-86
2021/09/19 05:29:00;;;;;;;4.90;0.80;;;17.80;76.00;;;;;;4959565;29;20414;-86
2021/09/19 05:31:25;;;;;;;2.28;0.65;;;17.80;76.00;;;;;;4959328;28;20448;-86
2021/09/19 05:33:51;;;;;;;2.75;0.90;;;17.80;75.70;;;;;;4941894;29;20043;-85
2021/09/19 05:36:17;;;;;;;4.07;0.57;;;17.80;75.50;;;;;;4959341;28;20027;-87
2021/09/19 05:38:43;;;;;;;2.58;0.70;;;17.80;75.70;;;;;;4959549;29;20031;-86
2021/09/19 05:41:08;;;;;;;2.20;0.55;;;17.80;75.60;;;;;;4959962;29;20078;-86
2021/09/19 05:43:34;;;;;;;2.97;0.90;;;17.70;75.70;;;;;;4958814;29;20114;-86
2021/09/19 05:46:01;;;;;;;4.75;0.85;;;17.70;75.30;;;;;;4959284;29;20106;-86
2021/09/19 05:48:27;;;;;;;4.15;1.00;;;17.70;75.40;;;;;;4959101;28;20093;-86
2021/09/19 05:50:52;;;;;;;4.63;0.82;;;17.70;75.40;;;;;;4959365;29;20492;-87
2021/09/19 05:53:18;;;;;;;2.95;0.60;;;17.70;75.30;;;;;;4959844;28;20031;-87
2021/09/19 05:55:44;;;;;;;2.95;0.55;;;17.70;76.00;;;;;;4959187;28;20043;-87
2021/09/19 05:58:09;;;;;;;2.50;0.77;;;17.70;75.10;;;;;;4958444;28;20558;-87
2021/09/19 06:00:35;;;;;;;2.67;0.80;;;17.70;75.20;;;;;;4959309;29;20041;-87
2021/09/19 06:03:01;;;;;;;2.85;0.73;;;17.70;75.10;;;;;;4959912;29;20023;-88
2021/09/19 06:05:26;;;;;;;4.07;0.60;;;17.70;74.90;;;;;;4959355;28;20518;-87
2021/09/19 06:07:52;;;;;;;5.70;0.75;;;17.60;74.90;;;;;;4959939;29;20031;-87
2021/09/19 06:10:18;;;;;;;3.55;0.63;;;17.60;75.40;;;;;;4959515;29;20033;-87
2021/09/19 06:12:43;;;;;;;3.67;0.70;;;17.60;75.00;;;;;;4955284;28;20035;-86
2021/09/19 06:15:10;;;;;;;3.92;0.80;;;17.70;75.10;;;;;;4956048;29;20536;-87
2021/09/19 06:17:36;;;;;;;1.85;0.50;;;17.60;74.90;;;;;;4956278;29;20510;-87
2021/09/19 06:20:02;;;;;;;3.63;0.73;;;17.60;75.00;;;;;;4956776;29;20023;-87
2021/09/19 06:22:28;;;;;;;2.60;0.60;;;17.60;75.00;;;;;;4938974;29;20130;-87
2021/09/19 06:24:54;;;;;;;3.47;0.80;;;17.60;75.00;;;;;;4956249;29;20029;-87
2021/09/19 06:27:20;;;;;;;2.75;0.45;;;17.60;75.00;;;;;;4955454;29;20114;-88
2021/09/19 06:29:45;;;;;;;4.50;0.88;;;17.60;75.00;;;;;;4956100;29;20031;-86
2021/09/19 06:32:11;;;;;;;5.20;0.80;;;17.60;75.10;;;;;;4956392;29;20034;-86
2021/09/19 06:34:38;;;;;;;2.20;0.70;;;17.60;75.00;;;;;;4954963;29;20065;-86
2021/09/19 06:37:05;;;;;;;2.97;0.60;;;17.60;74.90;;;;;;4950068;29;20027;-87
2021/09/19 06:39:31;;;;;;;3.45;0.75;;;17.60;74.90;;;;;;4955554;29;20798;-88
2021/09/19 06:41:57;;;;;;;5.63;0.77;;;17.60;74.90;;;;;;4944310;29;20051;-88
2021/09/19 06:44:23;;;;;;;3.55;0.70;;;17.60;74.90;;;;;;4937719;29;20015;-89
2021/09/19 06:46:49;;;;;;;4.07;0.50;;;17.60;74.90;;;;;;4956798;29;20148;-89
2021/09/19 06:49:15;;;;;;;3.42;0.68;;;17.60;75.00;;;;;;4939167;29;20499;-88
2021/09/19 06:51:40;;;;;;;5.78;0.73;;;17.60;74.80;;;;;;4956303;29;20031;-88
2021/09/19 06:54:06;;;;;;;3.60;0.70;;;17.60;75.00;;;;;;4955946;29;20075;-88
2021/09/19 06:56:32;;;;;;;3.63;0.80;;;17.70;75.00;;;;;;4955568;29;20035;-88
2021/09/19 06:58:58;;;;;;;2.63;0.57;;;17.70;74.80;;;;;;4938940;29;20027;-88
2021/09/19 07:01:24;;;;;;;4.40;0.75;;;17.70;75.10;;;;;;4954958;29;20074;-87
2021/09/19 07:03:50;;;;;;;5.35;1.15;;;17.70;74.70;;;;;;4955213;29;20027;-88
2021/09/19 07:06:17;;;;;;;2.97;0.63;;;17.80;75.10;;;;;;4955656;29;20046;-88
2021/09/19 07:08:44;;;;;;;4.45;0.75;;;17.80;74.90;;;;;;4956071;29;20086;-87
2021/09/19 07:11:10;;;;;;;2.50;0.75;;;17.80;74.80;;;;;;4955399;29;20106;-84
2021/09/19 07:13:35;;;;;;;3.85;0.57;;;17.90;74.50;;;;;;4955006;29;20103;-84
2021/09/19 07:16:01;;;;;;;2.97;0.50;;;17.90;74.90;;;;;;4954273;29;20481;-84
2021/09/19 07:18:27;;;;;;;2.17;0.68;;;18.00;74.50;;;;;;4944604;29;20024;-83
2021/09/19 07:20:54;;;;;;;4.90;0.60;;;17.90;73.90;;;;;;4940152;29;20063;-83
2021/09/19 07:23:20;;;;;;;3.63;0.90;;;17.90;74.00;;;;;;4950677;28;20038;-84
2021/09/19 07:25:46;;;;;;;3.08;0.60;;;18.00;74.00;;;;;;4955035;29;20066;-84
2021/09/19 07:28:12;;;;;;;2.38;0.80;;;18.00;74.20;;;;;;4945858;29;20030;-90
2021/09/19 07:30:38;;;;;;;4.75;0.70;;;18.10;73.80;;;;;;4960977;29;20037;-85
2021/09/19 07:33:05;;;;;;;2.67;0.80;;;18.10;73.70;;;;;;4940887;29;20044;-84
2021/09/19 07:35:31;;;;;;;3.17;0.90;;;18.00;73.30;;;;;;4941418;29;20043;-73
2021/09/19 07:37:57;;;;;;;2.03;0.82;;;18.00;73.20;;;;;;4945088;29;20031;-72
2021/09/19 07:40:23;;;;;;;2.80;0.65;;;18.10;73.90;;;;;;4948054;29;20031;-72
2021/09/19 07:42:49;;;;;;;2.42;0.70;;;18.10;73.00;;;;;;4947018;29;20400;-73
2021/09/19 07:45:15;;;;;;;3.58;0.90;;;18.20;73.20;;;;;;4945097;29;20105;-73
2021/09/19 07:47:41;;;;;;;2.58;0.70;;;18.30;73.30;;;;;;4942377;29;20500;-73
2021/09/19 07:50:08;;;;;;;2.83;0.57;;;18.30;72.90;;;;;;4925943;29;20448;-73
2021/09/19 07:52:34;;;;;;;3.08;0.50;;;18.40;73.30;;;;;;4932862;29;20054;-72
2021/09/19 07:55:00;;;;;;;3.45;0.75;;;18.50;72.70;;;;;;4945791;29;20509;-71
2021/09/19 07:57:26;;;;;;;3.83;0.63;;;18.70;73.10;;;;;;4950448;29;20031;-76
2021/09/19 07:59:53;;;;;;;2.40;0.68;;;18.80;73.00;;;;;;4951141;29;20559;-70
2021/09/19 08:02:20;;;;;;;2.33;0.50;;;19.00;72.90;;;;;;4942644;29;20019;-69
2021/09/19 08:04:46;;;;;;;4.90;0.70;;;19.10;72.10;;;;;;4941637;29;20116;-70
2021/09/19 08:07:12;;;;;;;2.67;0.50;;;19.00;71.60;;;;;;4950211;29;20123;-69
2021/09/19 08:09:38;;;;;;;2.38;0.60;;;19.00;71.80;;;;;;4942125;29;20504;-69
2021/09/19 08:12:04;;;;;;;2.90;0.50;;;18.90;71.30;;;;;;4950498;29;20031;-70
2021/09/19 08:14:30;;;;;;;2.83;0.68;;;18.90;71.10;;;;;;4942476;29;20035;-69
2021/09/19 08:16:57;;;;;;;3.20;0.55;;;18.80;71.00;;;;;;4949675;29;20030;-68
2021/09/19 08:19:24;;;;;;;3.17;0.60;;;18.70;71.10;;;;;;4946879;29;20027;-71
2021/09/19 08:21:50;;;;;;;4.00;0.70;;;18.70;71.20;;;;;;4943757;29;20471;-68
2021/09/19 08:24:16;;;;;;;3.22;0.80;;;18.60;71.70;;;;;;4949520;29;20020;-68
2021/09/19 08:26:42;;;;;;;4.85;0.95;;;18.70;72.10;;;;;;4942136;29;20046;-75
2021/09/19 08:29:09;;;;;;;3.78;0.52;;;18.70;71.50;;;;;;4947921;29;20016;-68
2021/09/19 08:31:36;;;;;;;2.78;0.60;;;18.70;71.70;;;;;;4946769;29;20122;-69
2021/09/19 08:34:02;;;;;;;3.55;0.70;;;18.70;71.60;;;;;;4944001;29;20067;-68
2021/09/19 08:36:28;;;;;;;2.00;0.68;;;18.70;71.30;;;;;;4947028;29;20055;-68
2021/09/19 08:38:54;;;;;;;3.83;1.00;;;18.70;71.50;;;;;;4923735;29;20035;-68
2021/09/19 08:41:20;;;;;;;5.45;0.68;;;18.70;71.50;;;;;;4945518;29;20020;-68
2021/09/19 08:43:48;;;;;;;5.50;0.65;;;18.70;71.50;;;;;;4945987;29;20027;-68
2021/09/19 08:46:20;;;;;;;2.33;0.70;;;18.80;71.60;;;;;;4946126;29;20090;-68
2021/09/19 08:48:46;;;;;;;2.83;0.80;;;18.90;71.30;;;;;;4949400;29;20034;-70
2021/09/19 08:51:12;;;;;;;3.58;0.70;;;18.90;70.90;;;;;;4948175;29;20027;-67
2021/09/19 08:53:38;;;;;;;3.72;0.80;;;19.00;71.10;;;;;;4949709;29;20024;-66
2021/09/19 08:56:05;;;;;;;4.72;0.77;;;19.10;71.10;;;;;;4943021;29;20031;-64
2021/09/19 08:58:32;;;;;;;4.60;0.55;;;19.20;71.10;;;;;;4948633;29;20527;-64
2021/09/19 09:01:00;;;;;;;2.83;0.60;;;19.40;71.00;;;;;;4948481;29;20038;-64
2021/09/19 09:03:28;;;;;;;3.53;0.50;;;19.50;69.90;;;;;;4939846;29;20510;-64
2021/09/19 09:05:57;;;;;;;2.72;0.82;;;19.60;70.30;;;;;;4948458;29;20048;-64
2021/09/19 09:08:24;;;;;;;2.75;0.70;;;19.60;70.20;;;;;;4940002;29;20031;-64
2021/09/19 09:10:52;;;;;;;2.97;0.50;;;19.70;69.40;;;;;;4949325;29;20042;-64
2021/09/19 09:13:24;;;;;;;2.17;0.68;;;19.60;69.40;;;;;;4946358;29;20034;-64
2021/09/19 09:16:00;;;;;;;2.38;0.80;;;19.70;69.30;;;;;;4943092;29;20028;-64
2021/09/19 09:18:52;;;;;;;2.75;0.60;;;19.70;69.50;;;;;;4949692;29;20034;-64
2021/09/19 09:21:32;;;;;;;2.03;0.55;;;19.90;69.00;;;;;;4937933;29;20031;-64
2021/09/19 09:24:03;;;;;;;2.33;0.80;;;20.00;68.70;;;;;;4949467;29;20023;-64
2021/09/19 09:26:33;;;;;;;4.00;0.70;;;20.10;68.70;;;;;;4941382;29;20562;-64
2021/09/19 09:29:08;;;;;;;3.53;0.60;;;20.30;68.20;;;;;;4948539;29;20480;-64
2021/09/19 09:31:34;;;;;;;6.28;0.60;;;20.40;67.80;;;;;;4946016;29;20488;-64
2021/09/19 09:34:16;;;;;;;3.38;0.70;;;20.40;67.70;;;;;;4943972;29;20058;-64
2021/09/19 09:36:44;;;;;;;3.53;0.52;;;20.40;67.20;;;;;;4948859;29;20023;-64
2021/09/19 09:39:30;;;;;;;4.18;0.68;;;20.60;67.70;;;;;;4938907;29;20035;-63
2021/09/19 09:42:06;;;;;;;2.13;0.70;;;20.70;67.40;;;;;;4944710;29;20074;-63
2021/09/19 09:44:34;;;;;;;2.80;1.00;;;20.60;66.00;;;;;;4940956;29;20024;-63
2021/09/19 09:47:05;;;;;;;4.22;0.60;;;20.60;66.20;;;;;;4949980;28;20481;-62
2021/09/19 09:49:35;;;;;;;5.18;0.73;;;20.60;67.30;;;;;;4955314;28;20063;-65
2021/09/19 09:52:34;;;;;;;3.25;0.70;;;20.70;67.00;;;;;;4940177;29;20142;-63
2021/09/19 09:55:08;;;;;;;2.33;0.70;;;20.60;66.80;;;;;;4858604;29;20053;-64
2021/09/19 09:57:34;;;;;;;2.05;0.60;;;20.50;66.30;;;;;;4859664;29;20666;-63
2021/09/19 10:00:03;;;;;;;2.60;0.95;;;20.40;66.40;;;;;;4855400;29;20033;-64
2021/09/19 10:02:30;;;;;;;3.08;0.68;;;20.40;66.80;;;;;;4859425;29;20122;-63
2021/09/19 10:04:57;;;;;;;3.03;0.90;;;20.50;67.30;;;;;;4857872;29;20044;-64
2021/09/19 10:07:23;;;;;;;2.15;0.80;;;20.60;66.80;;;;;;4854506;29;20145;-64
2021/09/19 10:09:48;;;;;;;3.60;0.88;;;20.60;66.80;;;;;;4844925;29;20074;-63
2021/09/19 10:12:14;;;;;;;3.25;0.70;;;20.60;66.70;;;;;;4856188;29;20057;-63
2021/09/19 10:14:40;;;;;;;3.97;0.82;;;20.60;67.00;;;;;;4860250;29;20037;-63
2021/09/19 10:17:06;;;;;;;4.50;0.52;;;20.80;66.70;;;;;;4859209;29;20046;-63
2021/09/19 10:19:33;;;;;;;1.85;0.52;;;20.90;66.10;;;;;;4856052;29;20088;-63
2021/09/19 10:22:00;;;;;;;2.42;0.60;;;21.00;66.10;;;;;;4859128;29;20108;-66
2021/09/19 10:24:27;;;;;;;2.58;0.73;;;21.00;65.60;;;;;;4865797;29;20124;-63
2021/09/19 10:26:55;;;;;;;2.92;0.90;;;21.10;65.30;;;;;;4859381;29;20037;-63
2021/09/19 10:29:22;;;;;;;3.55;1.02;;;21.10;65.20;;;;;;4850831;29;20029;-67
2021/09/19 10:31:48;;;;;;;3.10;0.93;;;21.20;66.20;;;;;;4939592;29;20046;-64
2021/09/19 10:34:27;;;;;;;4.18;1.02;;;21.40;65.60;;;;;;4950884;29;20146;-59
2021/09/19 10:36:57;;;;;;;2.95;0.90;;;21.50;65.50;;;;;;4946729;29;20070;-60
2021/09/19 10:39:38;;;;;;;2.03;0.90;;;21.70;65.10;;;;;;4952362;29;20054;-61
2021/09/19 10:42:07;;;;;;;2.33;0.90;;;21.60;64.00;;;;;;4943932;29;20417;-60
2021/09/19 10:44:59;;;;;;;2.42;0.80;;;21.50;63.70;;;;;;4951765;29;20122;-61
2021/09/19 10:47:24;;;;;;;3.20;0.82;;;21.60;64.40;;;;;;4933947;29;20046;-61
2021/09/19 10:50:09;;;;;;;1.45;0.73;;;21.60;63.60;;;;;;4952277;29;20134;-61
2021/09/19 10:52:43;;;;;;;4.13;0.82;;;21.90;64.70;;;;;;4949243;29;20027;-61
2021/09/19 10:55:58;;;;;;;1.98;0.68;;;21.80;63.50;;;;;;4948507;29;20416;-61
2021/09/19 10:58:38;;;;;;;3.20;0.70;;;21.90;64.20;;;;;;4925719;29;20040;-64
2021/09/19 11:01:06;;;;;;;2.10;0.70;;;22.20;63.80;;;;;;4947494;29;20053;-65
2021/09/19 11:03:32;;;;;;;2.80;0.68;;;22.80;64.30;;;;;;4955153;29;20031;-65
2021/09/19 11:05:58;;;;;;;2.78;0.70;;;23.20;61.60;;;;;;4954913;29;20094;-65
2021/09/19 11:08:23;;;;;;;2.25;0.60;;;23.40;60.80;;;;;;4955481;29;20026;-66
2021/09/19 11:10:49;;;;;;;1.40;0.65;;;23.40;60.90;;;;;;4955720;29;20067;-64
2021/09/19 11:13:25;;;;;;;2.28;0.63;;;23.70;59.90;;;;;;4954939;29;20038;-67
2021/09/19 11:16:14;;;;;;;2.13;0.65;;;24.10;60.30;;;;;;4945550;29;20039;-67
2021/09/19 11:18:39;;;;;;;2.10;0.50;;;24.20;59.60;;;;;;4939699;29;20082;-68
2021/09/19 11:21:11;;;;;;;2.58;0.60;;;24.20;57.50;;;;;;4954504;29;20508;-68
2021/09/19 11:24:05;;;;;;;1.75;0.50;;;24.00;57.10;;;;;;4955040;29;20027;-68
2021/09/19 11:26:36;;;;;;;1.65;0.60;;;24.30;57.90;;;;;;4953638;29;20031;-68
2021/09/19 11:29:17;;;;;;;1.77;0.50;;;24.00;55.90;;;;;;4955001;29;20532;-69
2021/09/19 11:31:45;;;;;;;2.05;0.68;;;23.80;55.10;;;;;;4954527;29;20514;-68
2021/09/19 11:34:14;;;;;;;1.42;0.60;;;23.60;56.80;;;;;;4954044;29;20051;-67
2021/09/19 11:36:48;;;;;;;1.67;0.50;;;24.00;59.10;;;;;;4954359;29;20114;-68
2021/09/19 11:39:16;;;;;;;2.38;0.80;;;24.10;57.30;;;;;;4954477;29;20031;-68
2021/09/19 11:41:43;;;;;;;3.33;0.60;;;24.00;56.50;;;;;;4939523;29;20023;-64
2021/09/19 11:44:15;;;;;;;1.20;0.40;;;23.80;56.10;;;;;;4950644;29;20046;-65
2021/09/19 11:46:46;;;;;;;1.92;0.60;;;23.70;57.80;;;;;;4953629;29;20107;-64
2021/09/19 11:49:13;;;;;;;1.73;0.57;;;25.00;61.40;;;;;;4953998;29;20038;-65
2021/09/19 11:51:41;;;;;;;2.55;0.60;;;26.30;54.40;;;;;;4954118;29;20031;-65
2021/09/19 11:54:10;;;;;;;1.48;0.68;;;27.50;58.70;;;;;;4954022;29;20070;-65
2021/09/19 11:56:37;;;;;;;1.45;0.60;;;29.90;54.10;;;;;;4953892;29;20024;-66
2021/09/19 11:59:03;;;;;;;1.08;0.50;;;31.50;46.90;;;;;;4954888;29;20027;-66
2021/09/19 12:01:30;;;;;;;1.30;0.45;;;31.70;44.00;;;;;;4953691;29;20035;-66
2021/09/19 12:04:06;;;;;;;1.33;0.50;;;32.30;44.00;;;;;;4953865;29;20031;-66
2021/09/19 12:06:33;;;;;;;1.30;0.50;;;33.00;39.30;;;;;;4953721;29;20543;-66
2021/09/19 12:08:59;;;;;;;3.65;0.40;;;32.70;39.80;;;;;;4953825;28;20122;-65
2021/09/19 12:11:53;;;;;;;1.80;0.60;;;31.40;37.60;;;;;;4953097;29;20031;-65
2021/09/19 12:14:25;;;;;;;0.88;0.40;;;30.20;45.20;;;;;;4950914;29;20037;-66
2021/09/19 12:17:01;;;;;;;1.80;0.50;;;31.90;43.50;;;;;;4953756;29;20479;-66
2021/09/19 12:19:29;;;;;;;1.83;0.40;;;30.90;41.30;;;;;;4953385;29;20047;-66
2021/09/19 12:22:19;;;;;;;1.50;0.60;;;29.60;39.30;;;;;;4953589;29;20097;-65
2021/09/19 12:24:50;;;;;;;1.42;0.60;;;28.20;42.20;;;;;;4942276;29;20036;-68
2021/09/19 12:27:25;;;;;;;1.00;0.43;;;27.60;43.20;;;;;;4936431;29;20035;-71
2021/09/19 12:30:14;;;;;;;2.83;0.50;;;27.10;44.50;;;;;;4939302;29;20365;-64
2021/09/19 12:32:50;;;;;;;2.70;0.63;;;26.50;44.50;;;;;;4953606;29;20027;-65
2021/09/19 12:35:23;;;;;;;1.35;0.50;;;25.90;45.90;;;;;;4949799;29;20114;-64
2021/09/19 12:37:50;;;;;;;2.30;0.60;;;25.40;46.70;;;;;;4953441;29;20125;-63
2021/09/19 12:40:19;;;;;;;1.30;0.52;;;25.20;47.90;;;;;;4953115;29;20113;-63
2021/09/19 12:42:46;;;;;;;3.00;0.73;;;24.90;47.90;;;;;;4953362;29;20072;-63
2021/09/19 12:45:14;;;;;;;1.10;0.47;;;24.70;48.60;;;;;;4944978;29;20047;-64
2021/09/19 12:47:41;;;;;;;2.08;0.52;;;24.40;49.10;;;;;;4952885;29;20105;-65
2021/09/19 12:50:13;;;;;;;1.70;0.57;;;24.30;49.80;;;;;;4941228;29;20110;-75
2021/09/19 12:52:40;;;;;;;2.10;0.50;;;24.00;49.70;;;;;;4933680;29;20109;-74